Time,TemperatureF,DewpointF,PressureIn,WindDirection,WindDirectionDegrees,WindSpeedMPH,WindSpeedGustMPH,Humidity,HourlyPrecipIn,Conditions,Clouds,dailyrainin,SolarRadiationWatts/m^2,SoftwareType,DateUTC
2013-01-21 00:01:00,38.3,34.5,30.10,West,267,0.0,0.0,86,0.00,,---,0.00,0.00,VWS V14.01,2013-01-21 05:01:00,
2013-01-21 00:02:00,38.2,34.4,30.10,West,267,0.0,0.0,86,0.00,,---,0.00,0.00,VWS V14.01,2013-01-21 05:02:00,
2013-01-21 00:03:00,38.2,34.4,30.10,West,267,0.0,0.0,86,0.00,,---,0.00,0.00,VWS V14.01,2013-01-21 05:03:00,
2013-01-21 00:08:00,38.0,34.2,30.09,West,267,0.0,0.0,86,0.00,,---,0.00,0.00,VWS V14.01,2013-01-21 05:08:00,
2013-01-21 00:13:00,37.9,33.8,30.09,West,267,0.0,0.0,85,0.00,,---,0.00,0.00,VWS V14.01,2013-01-21 05:13:00,
2013-01-21 00:19:00,37.7,33.6,30.09,West,267,0.0,0.0,85,0.00,,---,0.00,0.00,VWS V14.01,2013-01-21 05:19:00,
2013-01-21 00:24:00,37.5,33.4,30.09,West,267,0.0,0.0,85,0.00,,---,0.00,0.00,VWS V14.01,2013-01-21 05:24:00,
2013-01-21 00:29:00,37.3,33.5,30.09,West,267,0.0,1.0,86,0.00,,---,0.00,0.00,VWS V14.01,2013-01-21 05:29:00,
2013-01-21 00:34:00,37.2,33.7,30.08,West,267,0.0,0.0,87,0.00,,---,0.00,0.00,VWS V14.01,2013-01-21 05:34:00,
2013-01-21 00:39:00,37.1,33.9,30.08,West,267,0.0,0.0,88,0.00,,---,0.00,0.00,VWS V14.01,2013-01-21 05:39:00,
2013-01-21 00:44:00,37.0,33.8,30.09,West,267,0.0,0.0,88,0.00,,---,0.00,0.00,VWS V14.01,2013-01-21 05:44:00,
2013-01-21 00:49:00,36.9,33.7,30.09,West,267,0.0,0.0,88,0.00,,---,0.00,0.00,VWS V14.01,2013-01-21 05:49:00,
2013-01-21 00:55:00,36.8,33.6,30.08,West,267,0.0,0.0,88,0.00,,---,0.00,0.00,VWS V14.01,2013-01-21 05:55:00,
2013-01-21 01:00:00,36.7,33.8,30.08,West,267,0.0,0.0,89,0.00,,---,0.00,0.00,VWS V14.01,2013-01-21 06:00:00,
2013-01-21 01:05:00,36.6,33.7,30.08,West,267,0.0,0.0,89,0.00,,---,0.00,0.00,VWS V14.01,2013-01-21 06:05:00,
2013-01-21 01:10:00,36.4,33.5,30.08,West,267,0.0,0.0,89,0.00,,---,0.00,0.00,VWS V14.01,2013-01-21 06:10:00,
2013-01-21 01:15:00,36.3,33.4,30.08,West,267,0.0,0.0,89,0.00,,---,0.00,0.00,VWS V14.01,2013-01-21 06:15:00,
2013-01-21 01:20:00,36.2,33.3,30.08,West,267,0.0,0.0,89,0.00,,---,0.00,0.00,VWS V14.01,2013-01-21 06:20:00,
2013-01-21 01:25:00,36.1,33.2,30.08,West,267,0.0,0.0,89,0.00,,---,0.00,0.00,VWS V14.01,2013-01-21 06:25:00,
2013-01-21 01:30:00,35.9,33.0,30.08,West,267,0.0,0.0,89,0.00,,---,0.00,0.00,VWS V14.01,2013-01-21 06:30:00,
2013-01-21 01:36:00,35.8,32.9,30.08,West,267,0.0,0.0,89,0.00,,---,0.00,0.00,VWS V14.01,2013-01-21 06:36:00,
2013-01-21 01:41:00,35.6,32.7,30.07,West,267,0.0,0.0,89,0.00,,---,0.00,0.00,VWS V14.01,2013-01-21 06:41:00,
2013-01-21 01:46:00,35.4,32.5,30.08,West,267,0.0,0.0,89,0.00,,---,0.00,0.00,VWS V14.01,2013-01-21 06:46:00,
2013-01-21 01:51:00,35.3,32.7,30.08,West,267,0.0,0.0,90,0.00,,---,0.00,0.00,VWS V14.01,2013-01-21 06:51:00,
2013-01-21 01:56:00,35.2,32.6,30.08,West,267,0.0,0.0,90,0.00,,---,0.00,0.00,VWS V14.01,2013-01-21 06:56:00,
2013-01-21 02:01:00,35.1,32.5,30.08,West,267,0.0,0.0,90,0.00,,---,0.00,0.00,VWS V14.01,2013-01-21 07:01:00,
2013-01-21 02:07:00,35.0,32.4,30.08,West,267,0.0,0.0,90,0.00,,---,0.00,0.00,VWS V14.01,2013-01-21 07:07:00,
2013-01-21 02:12:00,35.0,32.4,30.08,West,267,0.0,0.0,90,0.00,,---,0.00,0.00,VWS V14.01,2013-01-21 07:12:00,
2013-01-21 02:17:00,34.9,32.3,30.08,West,267,0.0,0.0,90,0.00,,---,0.00,0.00,VWS V14.01,2013-01-21 07:17:00,
2013-01-21 02:22:00,34.8,32.2,30.07,West,267,0.0,0.0,90,0.00,,---,0.00,0.00,VWS V14.01,2013-01-21 07:22:00,
2013-01-21 02:27:00,34.7,32.1,30.07,West,267,0.0,0.0,90,0.00,,---,0.00,0.00,VWS V14.01,2013-01-21 07:27:00,
2013-01-21 02:32:00,34.5,31.9,30.07,West,267,0.0,0.0,90,0.00,,---,0.00,0.00,VWS V14.01,2013-01-21 07:32:00,
2013-01-21 02:38:00,34.4,31.8,30.07,West,267,0.0,0.0,90,0.00,,---,0.00,0.00,VWS V14.01,2013-01-21 07:38:00,
2013-01-21 02:43:00,34.3,31.7,30.07,West,267,0.0,0.0,90,0.00,,---,0.00,0.00,VWS V14.01,2013-01-21 07:43:00,
2013-01-21 02:48:00,34.2,31.6,30.07,West,267,0.0,0.0,90,0.00,,---,0.00,0.00,VWS V14.01,2013-01-21 07:48:00,
2013-01-21 02:53:00,34.1,31.5,30.07,West,267,0.0,0.0,90,0.00,,---,0.00,0.00,VWS V14.01,2013-01-21 07:53:00,
2013-01-21 02:58:00,34.0,31.4,30.07,West,267,0.0,0.0,90,0.00,,---,0.00,0.00,VWS V14.01,2013-01-21 07:58:00,
2013-01-21 03:03:00,33.9,31.3,30.07,West,267,0.0,0.0,90,0.00,,---,0.00,0.00,VWS V14.01,2013-01-21 08:03:00,
2013-01-21 03:08:00,33.7,31.1,30.07,West,267,0.0,0.0,90,0.00,,---,0.00,0.00,VWS V14.01,2013-01-21 08:08:00,
2013-01-21 03:14:00,33.7,31.1,30.07,West,267,0.0,0.0,90,0.00,,---,0.00,0.00,VWS V14.01,2013-01-21 08:14:00,
2013-01-21 03:19:00,33.5,30.9,30.07,West,267,0.0,0.0,90,0.00,,---,0.00,0.00,VWS V14.01,2013-01-21 08:19:00,
2013-01-21 03:24:00,33.4,30.8,30.07,West,267,0.0,0.0,90,0.00,,---,0.00,0.00,VWS V14.01,2013-01-21 08:24:00,
2013-01-21 03:29:00,33.4,31.1,30.07,West,267,0.0,0.0,91,0.00,,---,0.00,0.00,VWS V14.01,2013-01-21 08:29:00,
2013-01-21 03:34:00,33.4,31.1,30.07,West,267,0.0,0.0,91,0.00,,---,0.00,0.00,VWS V14.01,2013-01-21 08:34:00,
2013-01-21 03:39:00,33.3,31.0,30.07,West,267,0.0,0.0,91,0.00,,---,0.00,0.00,VWS V14.01,2013-01-21 08:39:00,
2013-01-21 03:44:00,33.3,31.0,30.07,West,267,0.0,0.0,91,0.00,,---,0.00,0.00,VWS V14.01,2013-01-21 08:44:00,
2013-01-21 03:49:00,33.2,30.9,30.07,West,267,0.0,0.0,91,0.00,,---,0.00,0.00,VWS V14.01,2013-01-21 08:49:00,
2013-01-21 03:54:00,33.1,30.8,30.07,West,267,0.0,0.0,91,0.00,,---,0.00,0.00,VWS V14.01,2013-01-21 08:54:00,
2013-01-21 03:59:00,33.0,30.7,30.07,West,267,0.0,0.0,91,0.00,,---,0.00,0.00,VWS V14.01,2013-01-21 08:59:00,
2013-01-21 04:04:00,32.9,30.6,30.07,West,267,0.0,0.0,91,0.00,,---,0.00,0.00,VWS V14.01,2013-01-21 09:04:00,
2013-01-21 04:10:00,32.7,30.4,30.07,West,267,0.0,0.0,91,0.00,,---,0.00,0.00,VWS V14.01,2013-01-21 09:10:00,
2013-01-21 04:15:00,32.6,30.3,30.07,West,267,0.0,0.0,91,0.00,,---,0.00,0.00,VWS V14.01,2013-01-21 09:15:00,
2013-01-21 04:20:00,32.5,30.2,30.07,West,267,0.0,0.0,91,0.00,,---,0.00,0.00,VWS V14.01,2013-01-21 09:20:00,
2013-01-21 04:25:00,32.3,30.0,30.07,West,267,0.0,1.0,91,0.00,,---,0.00,0.00,VWS V14.01,2013-01-21 09:25:00,
2013-01-21 04:30:00,32.3,30.0,30.07,West,267,0.0,0.0,91,0.00,,---,0.00,0.00,VWS V14.01,2013-01-21 09:30:00,
2013-01-21 04:36:00,32.2,29.9,30.07,West,267,0.0,0.0,91,0.00,,---,0.00,0.00,VWS V14.01,2013-01-21 09:36:00,
2013-01-21 04:41:00,32.1,30.0,30.07,West,267,0.0,0.0,92,0.00,,---,0.00,0.00,VWS V14.01,2013-01-21 09:41:00,
2013-01-21 04:46:00,32.0,29.9,30.07,West,267,0.0,0.0,92,0.00,,---,0.00,0.00,VWS V14.01,2013-01-21 09:46:00,
2013-01-21 04:51:00,32.0,29.9,30.07,West,267,0.0,0.0,92,0.00,,---,0.00,0.00,VWS V14.01,2013-01-21 09:51:00,
2013-01-21 04:56:00,31.9,29.8,30.07,West,267,0.0,0.0,92,0.00,,---,0.00,0.00,VWS V14.01,2013-01-21 09:56:00,
2013-01-21 05:02:00,31.8,29.8,30.07,West,267,0.0,0.0,92,0.00,,---,0.00,0.00,VWS V14.01,2013-01-21 10:02:00,
2013-01-21 05:07:00,31.7,29.6,30.07,West,267,0.0,0.0,92,0.00,,---,0.00,0.00,VWS V14.01,2013-01-21 10:07:00,
2013-01-21 05:12:00,31.6,29.5,30.07,West,267,0.0,0.0,92,0.00,,---,0.00,0.00,VWS V14.01,2013-01-21 10:12:00,
2013-01-21 05:17:00,31.5,29.5,30.06,West,267,0.0,0.0,92,0.00,,---,0.00,0.00,VWS V14.01,2013-01-21 10:17:00,
2013-01-21 05:23:00,31.5,29.5,30.06,West,267,0.0,0.0,92,0.00,,---,0.00,0.00,VWS V14.01,2013-01-21 10:23:00,
2013-01-21 05:28:00,31.5,29.5,30.06,West,267,0.0,0.0,92,0.00,,---,0.00,0.00,VWS V14.01,2013-01-21 10:28:00,
2013-01-21 05:33:00,31.4,29.4,30.06,West,267,0.0,0.0,92,0.00,,---,0.00,0.00,VWS V14.01,2013-01-21 10:33:00,
2013-01-21 05:38:00,31.4,29.4,30.06,West,267,0.0,0.0,92,0.00,,---,0.00,0.00,VWS V14.01,2013-01-21 10:38:00,
2013-01-21 05:44:00,31.3,29.2,30.06,West,267,0.0,0.0,92,0.00,,---,0.00,0.00,VWS V14.01,2013-01-21 10:44:00,
2013-01-21 05:49:00,31.2,29.1,30.07,West,267,0.0,0.0,92,0.00,,---,0.00,0.00,VWS V14.01,2013-01-21 10:49:00,
2013-01-21 05:54:00,31.1,29.0,30.06,West,267,0.0,0.0,92,0.00,,---,0.00,0.00,VWS V14.01,2013-01-21 10:54:00,
2013-01-21 05:59:00,31.0,29.0,30.07,West,267,0.0,0.0,92,0.00,,---,0.00,0.00,VWS V14.01,2013-01-21 10:59:00,
2013-01-21 06:04:00,30.9,28.9,30.07,West,267,0.0,0.0,92,0.00,,---,0.00,0.00,VWS V14.01,2013-01-21 11:04:00,
2013-01-21 06:09:00,30.8,28.8,30.06,West,267,0.0,0.0,92,0.00,,---,0.00,0.00,VWS V14.01,2013-01-21 11:09:00,
2013-01-21 06:14:00,30.7,28.7,30.06,West,267,0.0,0.0,92,0.00,,---,0.00,0.00,VWS V14.01,2013-01-21 11:14:00,
2013-01-21 06:19:00,30.7,28.7,30.07,West,267,0.0,0.0,92,0.00,,---,0.00,0.00,VWS V14.01,2013-01-21 11:19:00,
2013-01-21 06:25:00,30.6,28.6,30.07,West,267,0.0,0.0,92,0.00,,---,0.00,0.00,VWS V14.01,2013-01-21 11:25:00,
2013-01-21 06:30:00,30.5,28.7,30.07,West,267,0.0,0.0,93,0.00,,---,0.00,0.00,VWS V14.01,2013-01-21 11:30:00,
2013-01-21 06:35:00,30.5,28.5,30.07,West,267,0.0,0.0,92,0.00,,---,0.00,0.00,VWS V14.01,2013-01-21 11:35:00,
2013-01-21 06:40:00,30.4,28.4,30.07,West,267,0.0,0.0,92,0.00,,---,0.00,0.00,VWS V14.01,2013-01-21 11:40:00,
2013-01-21 06:45:00,30.3,28.3,30.07,West,267,0.0,0.0,92,0.00,,---,0.00,0.00,VWS V14.01,2013-01-21 11:45:00,
2013-01-21 06:50:00,30.3,28.3,30.07,West,267,0.0,0.0,92,0.00,,---,0.00,0.00,VWS V14.01,2013-01-21 11:50:00,
2013-01-21 06:55:00,30.3,28.5,30.07,West,267,0.0,0.0,93,0.00,,---,0.00,0.00,VWS V14.01,2013-01-21 11:55:00,
2013-01-21 07:00:00,30.3,28.5,30.07,West,267,0.0,0.0,93,0.00,,---,0.00,0.00,VWS V14.01,2013-01-21 12:00:00,
2013-01-21 07:05:00,30.3,28.5,30.07,West,267,0.0,0.0,93,0.00,,---,0.00,0.00,VWS V14.01,2013-01-21 12:05:00,
2013-01-21 07:10:00,30.3,28.5,30.07,West,267,0.0,0.0,93,0.00,,---,0.00,0.00,VWS V14.01,2013-01-21 12:10:00,
2013-01-21 07:15:00,30.2,28.4,30.07,West,267,0.0,0.0,93,0.00,,---,0.00,0.00,VWS V14.01,2013-01-21 12:15:00,
2013-01-21 07:21:00,30.2,28.4,30.07,West,267,0.0,0.0,93,0.00,,---,0.00,0.00,VWS V14.01,2013-01-21 12:21:00,
2013-01-21 07:26:00,30.2,28.4,30.07,West,267,0.0,0.0,93,0.00,,---,0.00,0.00,VWS V14.01,2013-01-21 12:26:00,
2013-01-21 07:31:00,30.1,28.3,30.07,West,267,0.0,0.0,93,0.00,,---,0.00,5.00,VWS V14.01,2013-01-21 12:31:00,
2013-01-21 07:36:00,30.1,28.3,30.07,West,267,0.0,0.0,93,0.00,,---,0.00,7.00,VWS V14.01,2013-01-21 12:36:00,
2013-01-21 07:41:00,29.9,28.1,30.07,West,267,0.0,0.0,93,0.00,,---,0.00,11.00,VWS V14.01,2013-01-21 12:41:00,
2013-01-21 07:46:00,29.8,28.0,30.08,West,267,0.0,1.0,93,0.00,,---,0.00,14.00,VWS V14.01,2013-01-21 12:46:00,
2013-01-21 07:51:00,29.6,27.8,30.08,West,267,0.0,1.0,93,0.00,,---,0.00,14.00,VWS V14.01,2013-01-21 12:51:00,
2013-01-21 07:56:00,29.5,27.7,30.08,West,267,0.0,0.0,93,0.00,,---,0.00,18.00,VWS V14.01,2013-01-21 12:56:00,
2013-01-21 08:01:00,29.6,27.8,30.07,West,267,0.0,0.0,93,0.00,,---,0.00,19.00,VWS V14.01,2013-01-21 13:01:00,
2013-01-21 08:06:00,29.7,27.9,30.08,West,267,0.0,0.0,93,0.00,,---,0.00,21.00,VWS V14.01,2013-01-21 13:06:00,
2013-01-21 08:11:00,30.0,28.2,30.08,West,267,0.0,0.0,93,0.00,,---,0.00,25.00,VWS V14.01,2013-01-21 13:11:00,
2013-01-21 08:17:00,30.3,28.5,30.09,West,267,0.0,0.0,93,0.00,,---,0.00,26.00,VWS V14.01,2013-01-21 13:17:00,
2013-01-21 08:22:00,30.8,29.3,30.09,West,267,0.0,0.0,94,0.00,,---,0.00,28.00,VWS V14.01,2013-01-21 13:22:00,
2013-01-21 08:27:00,31.2,29.7,30.09,West,267,0.0,0.0,94,0.00,,---,0.00,33.00,VWS V14.01,2013-01-21 13:27:00,
2013-01-21 08:32:00,31.8,30.3,30.09,West,267,0.0,0.0,94,0.00,,---,0.00,51.00,VWS V14.01,2013-01-21 13:32:00,
2013-01-21 08:37:00,32.5,31.0,30.09,West,267,0.0,0.0,94,0.00,,---,0.00,79.00,VWS V14.01,2013-01-21 13:37:00,
2013-01-21 08:42:00,33.1,31.6,30.09,West,267,0.0,0.0,94,0.00,,---,0.00,118.00,VWS V14.01,2013-01-21 13:42:00,
2013-01-21 08:47:00,33.7,32.2,30.09,West,267,0.0,0.0,94,0.00,,---,0.00,142.00,VWS V14.01,2013-01-21 13:47:00,
2013-01-21 08:52:00,34.3,33.0,30.10,West,267,0.0,0.0,95,0.00,,---,0.00,165.00,VWS V14.01,2013-01-21 13:52:00,
2013-01-21 08:58:00,35.1,33.8,30.10,West,267,0.0,0.0,95,0.00,,---,0.00,181.00,VWS V14.01,2013-01-21 13:58:00,
2013-01-21 09:03:00,36.4,35.1,30.10,West,267,0.0,0.0,95,0.00,,---,0.00,183.00,VWS V14.01,2013-01-21 14:03:00,
2013-01-21 09:08:00,38.1,36.8,30.10,WSW,258,3.0,3.0,95,0.00,,---,0.00,204.00,VWS V14.01,2013-01-21 14:08:00,
2013-01-21 09:13:00,39.5,38.2,30.11,WSW,258,2.0,3.0,95,0.00,,---,0.00,239.00,VWS V14.01,2013-01-21 14:13:00,
2013-01-21 09:18:00,40.8,39.2,30.11,WSW,258,2.0,3.0,94,0.00,,---,0.00,234.00,VWS V14.01,2013-01-21 14:18:00,
2013-01-21 09:23:00,41.7,39.5,30.11,WSW,258,1.0,3.0,92,0.00,,---,0.00,206.00,VWS V14.01,2013-01-21 14:23:00,
2013-01-21 09:28:00,42.5,39.5,30.11,WSW,258,0.0,4.0,89,0.00,,---,0.00,221.00,VWS V14.01,2013-01-21 14:28:00,
2013-01-21 09:33:00,43.3,39.7,30.11,WSW,254,3.0,5.0,87,0.00,,---,0.00,190.00,VWS V14.01,2013-01-21 14:33:00,
2013-01-21 09:38:00,43.8,39.6,30.11,West,259,3.0,5.0,85,0.00,,---,0.00,216.00,VWS V14.01,2013-01-21 14:38:00,
2013-01-21 09:43:00,44.3,39.8,30.11,SW,232,2.0,5.0,84,0.00,,---,0.00,223.00,VWS V14.01,2013-01-21 14:43:00,
2013-01-21 09:48:00,44.8,39.7,30.11,WSW,238,0.0,3.0,82,0.00,,---,0.00,248.00,VWS V14.01,2013-01-21 14:48:00,
2013-01-21 09:53:00,45.4,39.6,30.11,WSW,240,0.0,3.0,80,0.00,,---,0.00,281.00,VWS V14.01,2013-01-21 14:53:00,
2013-01-21 09:58:00,45.9,40.4,30.11,WSW,243,0.0,5.0,81,0.00,,---,0.00,329.00,VWS V14.01,2013-01-21 14:58:00,
2013-01-21 10:03:00,46.9,40.1,30.11,West,274,3.0,4.0,77,0.00,,---,0.00,334.00,VWS V14.01,2013-01-21 15:03:00,
2013-01-21 10:08:00,47.9,41.0,30.11,West,275,0.0,3.0,77,0.00,,---,0.00,359.00,VWS V14.01,2013-01-21 15:08:00,
2013-01-21 10:14:00,48.4,40.5,30.11,West,275,0.0,1.0,74,0.00,,---,0.00,436.00,VWS V14.01,2013-01-21 15:14:00,
2013-01-21 10:19:00,49.5,40.9,30.11,West,269,0.0,4.0,72,0.00,,---,0.00,501.00,VWS V14.01,2013-01-21 15:19:00,
2013-01-21 10:24:00,50.3,40.9,30.11,West,264,5.0,5.0,70,0.00,,---,0.00,490.00,VWS V14.01,2013-01-21 15:24:00,
2013-01-21 10:29:00,51.2,40.6,30.11,WSW,248,0.0,5.0,67,0.00,,---,0.00,445.00,VWS V14.01,2013-01-21 15:29:00,
2013-01-21 10:34:00,52.1,39.9,30.10,WSW,246,2.0,5.0,63,0.00,,---,0.00,494.00,VWS V14.01,2013-01-21 15:34:00,
2013-01-21 10:39:00,52.7,39.6,30.11,WSW,255,1.0,6.0,61,0.00,,---,0.00,531.00,VWS V14.01,2013-01-21 15:39:00,
2013-01-21 10:44:00,53.3,39.3,30.10,WSW,250,6.0,6.0,59,0.00,,---,0.00,517.00,VWS V14.01,2013-01-21 15:44:00,
2013-01-21 10:49:00,54.4,39.0,30.10,WSW,258,5.0,8.0,56,0.00,,---,0.00,503.00,VWS V14.01,2013-01-21 15:49:00,
2013-01-21 10:54:00,54.9,38.6,30.10,West,281,6.0,6.0,54,0.00,,---,0.00,452.00,VWS V14.01,2013-01-21 15:54:00,
2013-01-21 10:59:00,55.6,38.3,30.09,WSW,257,7.0,8.0,52,0.00,,---,0.00,478.00,VWS V14.01,2013-01-21 15:59:00,
2013-01-21 11:04:00,56.2,38.3,30.09,West,267,0.0,7.0,51,0.00,,---,0.00,496.00,VWS V14.01,2013-01-21 16:04:00,
2013-01-21 11:09:00,56.7,37.8,30.08,WNW,286,3.0,7.0,49,0.00,,---,0.00,531.00,VWS V14.01,2013-01-21 16:09:00,
2013-01-21 11:14:00,57.2,38.2,30.08,WNW,287,2.0,6.0,49,0.00,,---,0.00,575.00,VWS V14.01,2013-01-21 16:14:00,
2013-01-21 11:19:00,57.6,38.6,30.08,WNW,283,4.0,6.0,49,0.00,,---,0.00,619.00,VWS V14.01,2013-01-21 16:19:00,
2013-01-21 11:25:00,58.4,39.8,30.08,WNW,288,3.0,6.0,50,0.00,,---,0.00,619.00,VWS V14.01,2013-01-21 16:25:00,
2013-01-21 11:30:00,59.1,40.0,30.08,WSW,258,5.0,6.0,49,0.00,,---,0.00,603.00,VWS V14.01,2013-01-21 16:30:00,
2013-01-21 11:35:00,59.7,39.5,30.08,West,261,4.0,6.0,47,0.00,,---,0.00,557.00,VWS V14.01,2013-01-21 16:35:00,
2013-01-21 11:40:00,59.9,39.6,30.07,West,259,3.0,6.0,47,0.00,,---,0.00,390.00,VWS V14.01,2013-01-21 16:40:00,
2013-01-21 11:45:00,60.2,38.8,30.07,WNW,283,2.0,9.0,45,0.00,,---,0.00,357.00,VWS V14.01,2013-01-21 16:45:00,
2013-01-21 11:50:00,60.5,38.5,30.07,WNW,286,4.0,10.0,44,0.00,,---,0.00,316.00,VWS V14.01,2013-01-21 16:50:00,
2013-01-21 11:55:00,60.9,38.3,30.07,WSW,254,5.0,7.0,43,0.00,,---,0.00,350.00,VWS V14.01,2013-01-21 16:55:00,
2013-01-21 12:00:00,61.3,38.6,30.06,SW,236,3.0,7.0,43,0.00,,---,0.00,369.00,VWS V14.01,2013-01-21 17:00:00,
2013-01-21 12:05:00,61.7,37.8,30.06,WSW,249,5.0,9.0,41,0.00,,---,0.00,408.00,VWS V14.01,2013-01-21 17:05:00,
2013-01-21 12:10:00,62.0,36.1,30.05,WSW,250,8.0,12.0,38,0.00,,---,0.00,550.00,VWS V14.01,2013-01-21 17:10:00,
2013-01-21 12:15:00,62.6,35.3,30.05,WSW,240,11.0,13.0,36,0.00,,---,0.00,645.00,VWS V14.01,2013-01-21 17:15:00,
2013-01-21 12:20:00,63.1,35.7,30.05,WSW,248,6.0,12.0,36,0.00,,---,0.00,643.00,VWS V14.01,2013-01-21 17:20:00,
2013-01-21 12:25:00,63.4,36.7,30.04,West,265,11.0,13.0,37,0.00,,---,0.00,605.00,VWS V14.01,2013-01-21 17:25:00,
2013-01-21 12:31:00,63.5,36.8,30.04,SW,229,8.0,10.0,37,0.00,,---,0.00,708.00,VWS V14.01,2013-01-21 17:31:00,
2013-01-21 12:36:00,64.5,37.0,30.03,WSW,238,8.0,15.0,36,0.00,,---,0.00,629.00,VWS V14.01,2013-01-21 17:36:00,
2013-01-21 12:41:00,64.0,36.5,30.03,WSW,240,5.0,15.0,36,0.00,,---,0.00,603.00,VWS V14.01,2013-01-21 17:41:00,
2013-01-21 12:46:00,64.0,36.5,30.03,WSW,242,8.0,12.0,36,0.00,,---,0.00,594.00,VWS V14.01,2013-01-21 17:46:00,
2013-01-21 12:51:00,63.8,36.4,30.03,West,272,5.0,9.0,36,0.00,,---,0.00,626.00,VWS V14.01,2013-01-21 17:51:00,
2013-01-21 12:56:00,64.0,36.5,30.03,SW,236,10.0,13.0,36,0.00,,---,0.00,508.00,VWS V14.01,2013-01-21 17:56:00,
2013-01-21 13:01:00,63.8,37.0,30.02,SW,223,4.0,13.0,37,0.00,,---,0.00,592.00,VWS V14.01,2013-01-21 18:01:00,
2013-01-21 13:06:00,64.2,37.4,30.02,WSW,258,10.0,14.0,37,0.00,,---,0.00,622.00,VWS V14.01,2013-01-21 18:06:00,
2013-01-21 13:11:00,64.5,36.3,30.01,WSW,251,8.0,14.0,35,0.00,,---,0.00,573.00,VWS V14.01,2013-01-21 18:11:00,
2013-01-21 13:16:00,64.8,36.5,30.01,SW,231,9.0,15.0,35,0.00,,---,0.00,538.00,VWS V14.01,2013-01-21 18:16:00,
2013-01-21 13:21:00,64.8,36.5,30.01,WSW,238,9.0,17.0,35,0.00,,---,0.00,501.00,VWS V14.01,2013-01-21 18:21:00,
2013-01-21 13:26:00,64.5,37.0,30.01,WSW,248,6.0,14.0,36,0.00,,---,0.00,568.00,VWS V14.01,2013-01-21 18:26:00,
2013-01-21 13:31:00,64.8,35.8,30.00,WSW,249,9.0,14.0,34,0.00,,---,0.00,554.00,VWS V14.01,2013-01-21 18:31:00,
2013-01-21 13:36:00,65.0,34.5,30.00,SW,227,9.0,16.0,32,0.00,,---,0.00,512.00,VWS V14.01,2013-01-21 18:36:00,
2013-01-21 13:42:00,65.1,33.7,30.00,WSW,243,9.0,12.0,31,0.00,,---,0.00,501.00,VWS V14.01,2013-01-21 18:42:00,
2013-01-21 13:47:00,65.2,34.6,30.00,SW,222,9.0,10.0,32,0.00,,---,0.00,452.00,VWS V14.01,2013-01-21 18:47:00,
2013-01-21 13:52:00,65.3,33.9,30.00,West,262,11.0,15.0,31,0.00,,---,0.00,454.00,VWS V14.01,2013-01-21 18:52:00,
2013-01-21 13:57:00,65.3,33.1,30.00,SW,219,9.0,15.0,30,0.00,,---,0.00,403.00,VWS V14.01,2013-01-21 18:57:00,
2013-01-21 14:02:00,65.1,32.9,30.00,West,259,7.0,11.0,30,0.00,,---,0.00,431.00,VWS V14.01,2013-01-21 19:02:00,
2013-01-21 14:07:00,65.1,32.9,29.99,West,259,10.0,13.0,30,0.00,,---,0.00,364.00,VWS V14.01,2013-01-21 19:07:00,
2013-01-21 14:12:00,65.2,33.0,29.99,WSW,254,8.0,11.0,30,0.00,,---,0.00,383.00,VWS V14.01,2013-01-21 19:12:00,
2013-01-21 14:17:00,65.4,34.0,29.99,WSW,248,11.0,15.0,31,0.00,,---,0.00,330.00,VWS V14.01,2013-01-21 19:17:00,
2013-01-21 14:22:00,65.4,34.0,29.99,SW,236,12.0,12.0,31,0.00,,---,0.00,362.00,VWS V14.01,2013-01-21 19:22:00,
2013-01-21 14:27:00,65.6,34.2,29.99,West,281,8.0,12.0,31,0.00,,---,0.00,341.00,VWS V14.01,2013-01-21 19:27:00,
2013-01-21 14:32:00,65.7,32.6,29.99,West,265,17.0,18.0,29,0.00,,---,0.00,288.00,VWS V14.01,2013-01-21 19:32:00,
2013-01-21 14:37:00,65.6,32.5,29.99,WNW,289,10.0,16.0,29,0.00,,---,0.00,406.00,VWS V14.01,2013-01-21 19:37:00,
2013-01-21 14:43:00,65.6,32.5,29.99,WSW,251,9.0,15.0,29,0.00,,---,0.00,308.00,VWS V14.01,2013-01-21 19:43:00,
2013-01-21 14:48:00,65.6,32.5,29.99,West,265,11.0,15.0,29,0.00,,---,0.00,322.00,VWS V14.01,2013-01-21 19:48:00,
2013-01-21 14:53:00,65.7,32.6,29.99,West,261,11.0,11.0,29,0.00,,---,0.00,452.00,VWS V14.01,2013-01-21 19:53:00,
2013-01-21 14:58:00,65.9,31.9,29.98,WSW,248,8.0,15.0,28,0.00,,---,0.00,455.00,VWS V14.01,2013-01-21 19:58:00,
2013-01-21 15:03:00,66.0,31.1,29.98,West,272,9.0,16.0,27,0.00,,---,0.00,364.00,VWS V14.01,2013-01-21 20:03:00,
2013-01-21 15:08:00,66.1,32.1,29.98,SW,236,7.0,18.0,28,0.00,,---,0.00,434.00,VWS V14.01,2013-01-21 20:08:00,
2013-01-21 15:13:00,66.1,31.2,29.98,NW,304,10.0,17.0,27,0.00,,---,0.00,285.00,VWS V14.01,2013-01-21 20:13:00,
2013-01-21 15:18:00,66.0,31.1,29.98,WSW,245,13.0,13.0,27,0.00,,---,0.00,237.00,VWS V14.01,2013-01-21 20:18:00,
2013-01-21 15:23:00,65.6,30.8,29.99,West,260,9.0,12.0,27,0.00,,---,0.00,272.00,VWS V14.01,2013-01-21 20:23:00,
2013-01-21 15:28:00,65.6,31.6,29.99,West,277,6.0,12.0,28,0.00,,---,0.00,332.00,VWS V14.01,2013-01-21 20:28:00,
2013-01-21 15:34:00,65.7,31.7,29.99,West,269,13.0,15.0,28,0.00,,---,0.00,360.00,VWS V14.01,2013-01-21 20:34:00,
2013-01-21 15:39:00,65.5,30.7,29.98,West,274,14.0,17.0,27,0.00,,---,0.00,257.00,VWS V14.01,2013-01-21 20:39:00,
2013-01-21 15:44:00,65.4,31.5,29.99,West,281,8.0,11.0,28,0.00,,---,0.00,338.00,VWS V14.01,2013-01-21 20:44:00,
2013-01-21 15:49:00,65.4,30.6,29.99,West,263,8.0,12.0,27,0.00,,---,0.00,346.00,VWS V14.01,2013-01-21 20:49:00,
2013-01-21 15:54:00,65.4,31.5,29.99,West,263,8.0,13.0,28,0.00,,---,0.00,283.00,VWS V14.01,2013-01-21 20:54:00,
2013-01-21 15:59:00,65.4,32.3,29.99,WNW,288,7.0,9.0,29,0.00,,---,0.00,218.00,VWS V14.01,2013-01-21 20:59:00,
2013-01-21 16:04:00,65.4,31.5,29.99,West,266,12.0,17.0,28,0.00,,---,0.00,160.00,VWS V14.01,2013-01-21 21:04:00,
2013-01-21 16:10:00,65.2,32.2,29.99,West,268,9.0,15.0,29,0.00,,---,0.00,236.00,VWS V14.01,2013-01-21 21:10:00,
2013-01-21 16:15:00,64.9,31.9,29.99,WSW,258,8.0,11.0,29,0.00,,---,0.00,253.00,VWS V14.01,2013-01-21 21:15:00,
2013-01-21 16:20:00,64.8,32.7,29.99,WSW,257,8.0,11.0,30,0.00,,---,0.00,227.00,VWS V14.01,2013-01-21 21:20:00,
2013-01-21 16:25:00,64.6,33.3,29.99,WSW,247,6.0,14.0,31,0.00,,---,0.00,221.00,VWS V14.01,2013-01-21 21:25:00,
2013-01-21 16:30:00,64.4,32.3,30.00,West,269,5.0,15.0,30,0.00,,---,0.00,165.00,VWS V14.01,2013-01-21 21:30:00,
2013-01-21 16:35:00,64.3,33.0,30.00,West,268,11.0,14.0,31,0.00,,---,0.00,167.00,VWS V14.01,2013-01-21 21:35:00,
2013-01-21 16:40:00,64.1,32.9,30.00,WSW,252,7.0,16.0,31,0.00,,---,0.00,104.00,VWS V14.01,2013-01-21 21:40:00,
2013-01-21 16:45:00,63.9,32.7,30.00,West,269,5.0,15.0,31,0.00,,---,0.00,174.00,VWS V14.01,2013-01-21 21:45:00,
2013-01-21 16:50:00,63.8,32.6,30.00,WSW,253,7.0,14.0,31,0.00,,---,0.00,134.00,VWS V14.01,2013-01-21 21:50:00,
2013-01-21 16:55:00,63.7,33.3,30.00,WNW,287,4.0,10.0,32,0.00,,---,0.00,77.00,VWS V14.01,2013-01-21 21:55:00,
2013-01-21 17:00:00,63.4,33.8,30.00,West,265,12.0,14.0,33,0.00,,---,0.00,97.00,VWS V14.01,2013-01-21 22:00:00,
2013-01-21 17:05:00,63.1,33.6,30.00,WSW,250,6.0,12.0,33,0.00,,---,0.00,69.00,VWS V14.01,2013-01-21 22:05:00,
2013-01-21 17:10:00,62.8,34.0,30.00,WSW,254,5.0,13.0,34,0.00,,---,0.00,74.00,VWS V14.01,2013-01-21 22:10:00,
2013-01-21 17:15:00,62.7,34.0,30.00,West,272,5.0,11.0,34,0.00,,---,0.00,44.00,VWS V14.01,2013-01-21 22:15:00,
2013-01-21 17:21:00,62.4,34.4,30.00,West,265,2.0,13.0,35,0.00,,---,0.00,33.00,VWS V14.01,2013-01-21 22:21:00,
2013-01-21 17:26:00,62.0,34.1,30.00,WNW,296,10.0,15.0,35,0.00,,---,0.00,23.00,VWS V14.01,2013-01-21 22:26:00,
2013-01-21 17:31:00,61.7,34.5,30.01,West,279,11.0,16.0,36,0.00,,---,0.00,16.00,VWS V14.01,2013-01-21 22:31:00,
2013-01-21 17:36:00,61.4,34.9,30.01,WSW,248,11.0,16.0,37,0.00,,---,0.00,9.00,VWS V14.01,2013-01-21 22:36:00,
2013-01-21 17:41:00,61.2,34.7,30.01,West,273,5.0,11.0,37,0.00,,---,0.00,5.00,VWS V14.01,2013-01-21 22:41:00,
2013-01-21 17:46:00,60.8,35.1,30.01,West,267,4.0,10.0,38,0.00,,---,0.00,0.00,VWS V14.01,2013-01-21 22:46:00,
2013-01-21 17:51:00,60.5,35.4,30.01,West,263,4.0,9.0,39,0.00,,---,0.00,0.00,VWS V14.01,2013-01-21 22:51:00,
2013-01-21 17:56:00,60.2,35.2,30.01,WNW,282,4.0,6.0,39,0.00,,---,0.00,0.00,VWS V14.01,2013-01-21 22:56:00,
2013-01-21 18:01:00,59.8,35.5,30.01,West,275,5.0,7.0,40,0.00,,---,0.00,0.00,VWS V14.01,2013-01-21 23:01:00,
2013-01-21 18:06:00,59.5,35.2,30.01,West,273,4.0,6.0,40,0.00,,---,0.00,0.00,VWS V14.01,2013-01-21 23:06:00,
2013-01-21 18:11:00,59.3,35.6,30.01,West,272,1.0,4.0,41,0.00,,---,0.00,0.00,VWS V14.01,2013-01-21 23:11:00,
2013-01-21 18:16:00,59.0,35.3,30.01,West,272,0.0,3.0,41,0.00,,---,0.00,0.00,VWS V14.01,2013-01-21 23:16:00,
2013-01-21 18:21:00,58.6,35.6,30.02,West,272,0.0,2.0,42,0.00,,---,0.00,0.00,VWS V14.01,2013-01-21 23:21:00,
2013-01-21 18:26:00,58.3,35.3,30.02,West,272,0.0,2.0,42,0.00,,---,0.00,0.00,VWS V14.01,2013-01-21 23:26:00,
2013-01-21 18:31:00,58.0,35.7,30.02,West,272,0.0,2.0,43,0.00,,---,0.00,0.00,VWS V14.01,2013-01-21 23:31:00,
2013-01-21 18:36:00,57.8,35.5,30.02,West,272,4.0,4.0,43,0.00,,---,0.00,0.00,VWS V14.01,2013-01-21 23:36:00,
2013-01-21 18:41:00,57.4,35.7,30.02,West,270,0.0,4.0,44,0.00,,---,0.00,0.00,VWS V14.01,2013-01-21 23:41:00,
2013-01-21 18:46:00,56.9,35.8,30.02,West,270,0.0,2.0,45,0.00,,---,0.00,0.00,VWS V14.01,2013-01-21 23:46:00,
2013-01-21 18:51:00,56.6,35.5,30.02,West,265,5.0,9.0,45,0.00,,---,0.00,0.00,VWS V14.01,2013-01-21 23:51:00,
2013-01-21 18:57:00,56.4,35.9,30.02,WSW,253,0.0,0.0,46,0.00,,---,0.00,0.00,VWS V14.01,2013-01-21 23:57:00,
2013-01-21 19:02:00,56.2,35.7,30.02,West,264,4.0,4.0,46,0.00,,---,0.00,0.00,VWS V14.01,2013-01-22 00:02:00,
2013-01-21 19:07:00,56.1,35.6,30.03,West,259,4.0,6.0,46,0.00,,---,0.00,0.00,VWS V14.01,2013-01-22 00:07:00,
2013-01-21 19:12:00,56.0,35.5,30.03,West,259,4.0,4.0,46,0.00,,---,0.00,0.00,VWS V14.01,2013-01-22 00:12:00,
2013-01-21 19:17:00,55.9,36.0,30.03,WSW,256,2.0,2.0,47,0.00,,---,0.00,0.00,VWS V14.01,2013-01-22 00:17:00,
2013-01-21 19:22:00,55.6,35.7,30.03,WSW,257,2.0,2.0,47,0.00,,---,0.00,0.00,VWS V14.01,2013-01-22 00:22:00,
2013-01-21 19:27:00,55.3,35.4,30.03,WSW,251,4.0,6.0,47,0.00,,---,0.00,0.00,VWS V14.01,2013-01-22 00:27:00,
2013-01-21 19:32:00,55.0,35.7,30.03,WSW,249,3.0,5.0,48,0.00,,---,0.00,0.00,VWS V14.01,2013-01-22 00:32:00,
2013-01-21 19:37:00,54.8,35.5,30.03,WSW,250,0.0,3.0,48,0.00,,---,0.00,0.00,VWS V14.01,2013-01-22 00:37:00,
2013-01-21 19:42:00,54.5,35.2,30.03,WSW,250,3.0,4.0,48,0.00,,---,0.00,0.00,VWS V14.01,2013-01-22 00:42:00,
2013-01-21 19:47:00,54.2,35.5,30.03,WSW,250,2.0,4.0,49,0.00,,---,0.00,0.00,VWS V14.01,2013-01-22 00:47:00,
2013-01-21 19:52:00,54.0,35.3,30.03,WSW,250,1.0,3.0,49,0.00,,---,0.00,0.00,VWS V14.01,2013-01-22 00:52:00,
2013-01-21 19:57:00,53.9,35.7,30.03,WSW,254,5.0,5.0,50,0.00,,---,0.00,0.00,VWS V14.01,2013-01-22 00:57:00,
2013-01-21 20:02:00,53.9,35.7,30.03,WSW,252,4.0,6.0,50,0.00,,---,0.00,0.00,VWS V14.01,2013-01-22 01:02:00,
2013-01-21 20:07:00,54.0,35.8,30.03,WSW,252,8.0,10.0,50,0.00,,---,0.00,0.00,VWS V14.01,2013-01-22 01:07:00,
2013-01-21 20:12:00,54.2,35.5,30.03,WSW,253,4.0,7.0,49,0.00,,---,0.00,0.00,VWS V14.01,2013-01-22 01:12:00,
2013-01-21 20:18:00,54.2,35.5,30.03,West,271,2.0,6.0,49,0.00,,---,0.00,0.00,VWS V14.01,2013-01-22 01:18:00,
2013-01-21 20:23:00,54.2,35.5,30.03,West,269,5.0,6.0,49,0.00,,---,0.00,0.00,VWS V14.01,2013-01-22 01:23:00,
2013-01-21 20:28:00,54.2,35.5,30.04,West,260,3.0,6.0,49,0.00,,---,0.00,0.00,VWS V14.01,2013-01-22 01:28:00,
2013-01-21 20:33:00,54.3,35.6,30.04,West,270,8.0,13.0,49,0.00,,---,0.00,0.00,VWS V14.01,2013-01-22 01:33:00,
2013-01-21 20:38:00,54.5,35.8,30.04,West,265,5.0,8.0,49,0.00,,---,0.00,0.00,VWS V14.01,2013-01-22 01:38:00,
2013-01-21 20:43:00,54.5,35.2,30.04,West,277,5.0,6.0,48,0.00,,---,0.00,0.00,VWS V14.01,2013-01-22 01:43:00,
2013-01-21 20:48:00,54.5,35.2,30.04,West,261,6.0,10.0,48,0.00,,---,0.00,0.00,VWS V14.01,2013-01-22 01:48:00,
2013-01-21 20:53:00,54.5,35.2,30.04,West,270,5.0,11.0,48,0.00,,---,0.00,0.00,VWS V14.01,2013-01-22 01:53:00,
2013-01-21 20:58:00,54.4,34.6,30.04,West,274,4.0,8.0,47,0.00,,---,0.00,0.00,VWS V14.01,2013-01-22 01:58:00,
2013-01-21 21:03:00,54.4,34.6,30.05,WSW,250,7.0,14.0,47,0.00,,---,0.00,0.00,VWS V14.01,2013-01-22 02:03:00,
2013-01-21 21:08:00,54.3,34.5,30.05,West,261,8.0,9.0,47,0.00,,---,0.00,0.00,VWS V14.01,2013-01-22 02:08:00,
2013-01-21 21:13:00,54.2,34.4,30.05,WNW,293,6.0,7.0,47,0.00,,---,0.00,0.00,VWS V14.01,2013-01-22 02:13:00,
2013-01-21 21:18:00,54.1,34.3,30.06,West,279,4.0,10.0,47,0.00,,---,0.00,0.00,VWS V14.01,2013-01-22 02:18:00,
2013-01-21 21:23:00,53.9,34.7,30.06,WSW,240,8.0,10.0,48,0.00,,---,0.00,0.00,VWS V14.01,2013-01-22 02:23:00,
2013-01-21 21:28:00,53.7,34.0,30.06,West,265,4.0,6.0,47,0.00,,---,0.00,0.00,VWS V14.01,2013-01-22 02:28:00,
2013-01-21 21:33:00,53.5,33.8,30.07,West,274,7.0,10.0,47,0.00,,---,0.00,0.00,VWS V14.01,2013-01-22 02:33:00,
2013-01-21 21:39:00,53.3,33.6,30.06,West,264,10.0,14.0,47,0.00,,---,0.00,0.00,VWS V14.01,2013-01-22 02:39:00,
2013-01-21 21:44:00,53.3,33.1,30.07,West,271,12.0,14.0,46,0.00,,---,0.00,0.00,VWS V14.01,2013-01-22 02:44:00,
2013-01-21 21:49:00,53.3,33.1,30.07,West,263,8.0,10.0,46,0.00,,---,0.00,0.00,VWS V14.01,2013-01-22 02:49:00,
2013-01-21 21:54:00,53.2,33.0,30.07,West,259,6.0,9.0,46,0.00,,---,0.00,0.00,VWS V14.01,2013-01-22 02:54:00,
2013-01-21 21:59:00,53.0,32.2,30.06,West,279,5.0,14.0,45,0.00,,---,0.00,0.00,VWS V14.01,2013-01-22 02:59:00,
2013-01-21 22:04:00,52.9,32.2,30.07,West,274,4.0,9.0,45,0.00,,---,0.00,0.00,VWS V14.01,2013-01-22 03:04:00,
2013-01-21 22:09:00,52.6,31.9,30.07,West,263,7.0,8.0,45,0.00,,---,0.00,0.00,VWS V14.01,2013-01-22 03:09:00,
2013-01-21 22:14:00,52.4,31.1,30.07,WNW,290,9.0,14.0,44,0.00,,---,0.00,0.00,VWS V14.01,2013-01-22 03:14:00,
2013-01-21 22:19:00,52.4,31.1,30.07,WNW,284,6.0,10.0,44,0.00,,---,0.00,0.00,VWS V14.01,2013-01-22 03:19:00,
2013-01-21 22:24:00,52.2,30.4,30.08,WNW,287,5.0,11.0,43,0.00,,---,0.00,0.00,VWS V14.01,2013-01-22 03:24:00,
2013-01-21 22:29:00,52.1,30.3,30.08,WNW,294,7.0,11.0,43,0.00,,---,0.00,0.00,VWS V14.01,2013-01-22 03:29:00,
2013-01-21 22:34:00,51.9,30.1,30.08,West,280,7.0,9.0,43,0.00,,---,0.00,0.00,VWS V14.01,2013-01-22 03:34:00,
2013-01-21 22:39:00,51.7,29.4,30.08,West,264,16.0,19.0,42,0.00,,---,0.00,0.00,VWS V14.01,2013-01-22 03:39:00,
2013-01-21 22:44:00,51.7,29.4,30.08,West,265,3.0,12.0,42,0.00,,---,0.00,0.00,VWS V14.01,2013-01-22 03:44:00,
2013-01-21 22:49:00,51.5,28.0,30.08,West,279,6.0,14.0,40,0.00,,---,0.00,0.00,VWS V14.01,2013-01-22 03:49:00,
2013-01-21 22:54:00,51.3,28.4,30.08,WNW,292,8.0,14.0,41,0.00,,---,0.00,0.00,VWS V14.01,2013-01-22 03:54:00,
2013-01-21 22:59:00,51.1,27.6,30.08,West,277,9.0,9.0,40,0.00,,---,0.00,0.00,VWS V14.01,2013-01-22 03:59:00,
2013-01-21 23:04:00,50.9,27.5,30.08,West,263,8.0,11.0,40,0.00,,---,0.00,0.00,VWS V14.01,2013-01-22 04:04:00,
2013-01-21 23:09:00,50.8,27.4,30.08,West,261,5.0,9.0,40,0.00,,---,0.00,0.00,VWS V14.01,2013-01-22 04:09:00,
2013-01-21 23:14:00,50.5,27.1,30.08,West,273,4.0,8.0,40,0.00,,---,0.00,0.00,VWS V14.01,2013-01-22 04:14:00,
2013-01-21 23:20:00,50.3,26.9,30.08,West,280,5.0,10.0,40,0.00,,---,0.00,0.00,VWS V14.01,2013-01-22 04:20:00,
2013-01-21 23:25:00,50.0,26.6,30.08,West,277,4.0,10.0,40,0.00,,---,0.00,0.00,VWS V14.01,2013-01-22 04:25:00,
2013-01-21 23:30:00,49.7,27.0,30.08,West,265,2.0,6.0,41,0.00,,---,0.00,0.00,VWS V14.01,2013-01-22 04:30:00,
2013-01-21 23:35:00,49.5,27.4,30.08,West,265,3.0,8.0,42,0.00,,---,0.00,0.00,VWS V14.01,2013-01-22 04:35:00,
2013-01-21 23:40:00,49.2,27.1,30.08,WSW,251,9.0,10.0,42,0.00,,---,0.00,0.00,VWS V14.01,2013-01-22 04:40:00,
2013-01-21 23:45:00,49.1,27.0,30.07,West,261,5.0,10.0,42,0.00,,---,0.00,0.00,VWS V14.01,2013-01-22 04:45:00,
2013-01-21 23:50:00,48.9,27.4,30.07,West,263,6.0,8.0,43,0.00,,---,0.00,0.00,VWS V14.01,2013-01-22 04:50:00,
2013-01-21 23:55:00,48.8,27.3,30.07,West,276,1.0,8.0,43,0.00,,---,0.00,0.00,VWS V14.01,2013-01-22 04:55:00,